createdAt,value
2023-02-12T00:02:05.301Z,95056.16
2023-02-12T00:04:31.973Z,95053.06
2023-02-12T00:06:58.564Z,95067.22
2023-02-12T00:09:25.519Z,95067.75
2023-02-12T00:11:52.281Z,95057.38
2023-02-12T00:14:19.050Z,95076.56
2023-02-12T00:16:45.706Z,95075.19
2023-02-12T00:19:12.418Z,95066.72
2023-02-12T00:21:39.151Z,95059.06
2023-02-12T00:24:05.968Z,95056.28
2023-02-12T00:26:32.775Z,95062.25
2023-02-12T00:28:59.376Z,95056.34
2023-02-12T00:31:28.814Z,95055.19
2023-02-12T00:33:55.761Z,95051.66
2023-02-12T00:36:25.166Z,95047.16
2023-02-12T00:38:53.712Z,95042.44
2023-02-12T00:41:21.094Z,95040.78
2023-02-12T00:43:48.769Z,95021.44
2023-02-12T00:46:15.867Z,95013.34
2023-02-12T00:48:42.915Z,95017.28
2023-02-12T00:51:09.677Z,95015.91
2023-02-12T00:53:36.419Z,95018.72
2023-02-12T00:56:03.096Z,95020.59
2023-02-12T00:58:29.707Z,95009.81
2023-02-12T01:00:56.378Z,95001.13
2023-02-12T01:03:23.894Z,94995.56
2023-02-12T01:05:50.621Z,94997.75
2023-02-12T01:08:17.594Z,94989.31
2023-02-12T01:10:44.855Z,94993.22
2023-02-12T01:13:15.355Z,94993.53
2023-02-12T01:15:42.412Z,94995.13
2023-02-12T01:18:09.242Z,94994.09
2023-02-12T01:20:35.903Z,94995.38
2023-02-12T01:23:03.385Z,94997.22
2023-02-12T01:25:30.018Z,95009.53
2023-02-12T01:27:56.656Z,95009.25
2023-02-12T01:30:24.325Z,95013.50
2023-02-12T01:32:51.140Z,95019.53
2023-02-12T01:35:17.808Z,95016.25
2023-02-12T01:37:44.468Z,95018.19
2023-02-12T01:40:14.837Z,95011.03
2023-02-12T01:42:41.436Z,95014.13
2023-02-12T01:45:14.058Z,95004.13
2023-02-12T01:47:42.405Z,95000.97
2023-02-12T01:50:13.300Z,94996.78
2023-02-12T01:52:43.734Z,94997.44
2023-02-12T01:55:11.699Z,94978.94
2023-02-12T01:57:42.761Z,94971.38
2023-02-12T02:00:17.149Z,94986.66
2023-02-12T02:02:47.263Z,94988.91
2023-02-12T02:05:18.401Z,94996.25
2023-02-12T02:07:45.664Z,94985.81
2023-02-12T02:10:12.450Z,94985.31
2023-02-12T02:12:58.383Z,94996.53
2023-02-12T02:15:30.569Z,95001.03
2023-02-12T02:18:09.191Z,94989.00
2023-02-12T02:20:59.998Z,94982.19
2023-02-12T02:23:59.315Z,94981.31
2023-02-12T02:26:54.981Z,94986.97
2023-02-12T02:29:27.285Z,94984.41
2023-02-12T02:32:32.720Z,94983.66
2023-02-12T02:35:09.596Z,94980.53
2023-02-12T02:37:57.266Z,94980.13
2023-02-12T02:40:27.250Z,94977.56
2023-02-12T02:43:05.542Z,94990.53
2023-02-12T02:45:43.646Z,94998.50
2023-02-12T02:48:25.069Z,94982.81
2023-02-12T02:51:24.602Z,94987.31
2023-02-12T02:54:01.180Z,94989.09
2023-02-12T02:56:29.666Z,94988.75
2023-02-12T02:59:03.189Z,94982.69
2023-02-12T03:01:38.959Z,94983.16
2023-02-12T03:04:07.901Z,94978.28
2023-02-12T03:06:47.139Z,94985.09
2023-02-12T03:09:22.647Z,94973.25
2023-02-12T03:11:50.980Z,94993.38
2023-02-12T03:14:38.407Z,94989.81
2023-02-12T03:17:15.694Z,94984.59
2023-02-12T03:19:46.889Z,94986.41
2023-02-12T03:22:22.243Z,94988.09
2023-02-12T03:24:56.010Z,94987.00
2023-02-12T03:27:33.246Z,94979.44
2023-02-12T03:30:00.987Z,94965.78
2023-02-12T03:32:52.026Z,94977.56
2023-02-12T03:35:24.758Z,94963.19
2023-02-12T03:38:39.762Z,94969.25
2023-02-12T03:41:11.989Z,94968.59
2023-02-12T03:44:04.095Z,94968.88
2023-02-12T03:46:43.614Z,94970.09
2023-02-12T03:49:29.266Z,94961.63
2023-02-12T03:51:56.262Z,94965.41
2023-02-12T03:54:23.199Z,94948.56
2023-02-12T03:56:52.584Z,94957.84
2023-02-12T03:59:21.364Z,94968.75
2023-02-12T04:01:50.022Z,94974.63
2023-02-12T04:04:17.543Z,94973.53
2023-02-12T04:06:48.008Z,94965.78
2023-02-12T04:09:15.436Z,94958.75
2023-02-12T04:11:59.260Z,94958.31
2023-02-12T04:14:56.902Z,94960.69
2023-02-12T04:17:54.173Z,94967.00
2023-02-12T04:20:41.416Z,94975.72
2023-02-12T04:23:32.800Z,94977.91
2023-02-12T04:26:22.253Z,94979.63
2023-02-12T04:28:58.447Z,94987.31
2023-02-12T04:31:44.982Z,94976.69
2023-02-12T04:34:31.591Z,94989.47
2023-02-12T04:37:05.673Z,94986.06
2023-02-12T04:39:37.053Z,94981.25
2023-02-12T04:42:04.156Z,94992.47
2023-02-12T04:44:37.686Z,94990.31
2023-02-12T04:47:04.628Z,94993.19
2023-02-12T04:49:31.794Z,94996.63
2023-02-12T04:51:58.584Z,94994.59
2023-02-12T04:54:25.574Z,95007.63
2023-02-12T04:56:52.230Z,95005.31
2023-02-12T04:59:18.873Z,95010.06
2023-02-12T05:01:45.691Z,95018.88
2023-02-12T05:04:14.846Z,95014.28
2023-02-12T05:06:42.707Z,95016.13
2023-02-12T05:09:13.356Z,95013.94
2023-02-12T05:11:40.031Z,95016.00
2023-02-12T05:14:06.703Z,95027.09
2023-02-12T05:16:33.288Z,95031.16
2023-02-12T05:18:59.942Z,95040.69
2023-02-12T05:21:26.618Z,95035.00
2023-02-12T05:23:53.298Z,95042.72
2023-02-12T05:26:22.199Z,95043.09
2023-02-12T05:28:48.964Z,95060.97
2023-02-12T05:31:21.289Z,95058.13
2023-02-12T05:33:49.964Z,95054.19
2023-02-12T05:36:22.545Z,95065.56
2023-02-12T05:38:53.243Z,95063.75
2023-02-12T05:41:22.378Z,95073.25
2023-02-12T05:43:50.218Z,95072.72
2023-02-12T05:46:19.341Z,95064.03
2023-02-12T05:48:48.350Z,95072.19
2023-02-12T05:51:21.967Z,95070.56
2023-02-12T05:53:50.165Z,95073.22
2023-02-12T05:56:20.220Z,95071.38
2023-02-12T05:58:51.765Z,95082.16
2023-02-12T06:01:22.331Z,95074.00
2023-02-12T06:03:48.992Z,95080.84
2023-02-12T06:06:15.646Z,95093.19
2023-02-12T06:08:42.950Z,95085.88
2023-02-12T06:11:14.061Z,95088.50
2023-02-12T06:13:41.018Z,95083.78
2023-02-12T06:16:08.341Z,95072.72
2023-02-12T06:18:36.371Z,95078.75
2023-02-12T06:21:04.409Z,95090.59
2023-02-12T06:23:31.053Z,95075.56
2023-02-12T06:25:58.171Z,95084.00
2023-02-12T06:28:25.113Z,95079.28
2023-02-12T06:30:52.063Z,95071.41
2023-02-12T06:33:18.718Z,95079.03
2023-02-12T06:35:45.392Z,95077.19
2023-02-12T06:38:12.450Z,95073.78
2023-02-12T06:40:39.045Z,95068.50
2023-02-12T06:43:05.678Z,95081.16
2023-02-12T06:45:33.563Z,95080.88
2023-02-12T06:48:00.234Z,95081.66
2023-02-12T06:50:27.678Z,95079.91
2023-02-12T06:52:54.360Z,95084.25
2023-02-12T06:55:21.183Z,95079.25
2023-02-12T06:57:47.840Z,95086.53
2023-02-12T07:00:14.719Z,95080.72
2023-02-12T07:02:41.733Z,95080.97
2023-02-12T07:05:08.571Z,95083.00
2023-02-12T07:07:35.265Z,95080.81
2023-02-12T07:10:02.028Z,95081.63
2023-02-12T07:12:28.687Z,95077.22
2023-02-12T07:14:55.320Z,95077.69
2023-02-12T07:17:22.004Z,95078.72
2023-02-12T07:19:48.586Z,95076.94
2023-02-12T07:22:15.210Z,95070.59
2023-02-12T07:24:41.925Z,95076.16
2023-02-12T07:27:08.566Z,95071.88
2023-02-12T07:29:35.293Z,95077.88
2023-02-12T07:32:01.942Z,95084.03
2023-02-12T07:34:28.609Z,95081.22
2023-02-12T07:36:55.185Z,95081.19
2023-02-12T07:39:22.053Z,95075.03
2023-02-12T07:41:48.729Z,95087.03
2023-02-12T07:44:15.387Z,95085.78
2023-02-12T07:46:48.602Z,95086.94
2023-02-12T07:49:18.609Z,95097.38
2023-02-12T07:51:46.170Z,95106.97
2023-02-12T07:54:13.393Z,95110.72
2023-02-12T07:56:41.256Z,95111.00
2023-02-12T07:59:12.630Z,95103.28
2023-02-12T08:01:42.063Z,95104.91
2023-02-12T08:04:13.390Z,95104.38
2023-02-12T08:06:51.918Z,95110.88
2023-02-12T08:09:21.742Z,95120.25
2023-02-12T08:11:48.790Z,95115.53
2023-02-12T08:14:18.709Z,95107.34
2023-02-12T08:16:46.629Z,95113.41
2023-02-12T08:19:20.978Z,95112.00
2023-02-12T08:21:50.769Z,95110.94
2023-02-12T08:24:17.455Z,95120.97
2023-02-12T08:26:44.491Z,95121.38
2023-02-12T08:29:14.412Z,95124.81
2023-02-12T08:31:44.273Z,95122.63
2023-02-12T08:34:22.440Z,95131.75
2023-02-12T08:36:50.665Z,95131.28
2023-02-12T08:39:18.342Z,95138.38
2023-02-12T08:41:45.352Z,95131.91
2023-02-12T08:44:12.420Z,95146.63
2023-02-12T08:46:44.126Z,95146.03
2023-02-12T08:49:16.428Z,95153.00
2023-02-12T08:51:48.891Z,95147.94
2023-02-12T08:54:21.416Z,95155.03
2023-02-12T08:56:48.133Z,95149.28
2023-02-12T08:59:16.091Z,95153.56
2023-02-12T09:01:43.998Z,95155.44
2023-02-12T09:04:23.307Z,95161.00
2023-02-12T09:06:50.824Z,95156.72
2023-02-12T09:09:17.973Z,95165.56
2023-02-12T09:11:44.996Z,95168.97
2023-02-12T09:14:15.675Z,95168.28
2023-02-12T09:16:43.813Z,95180.03
2023-02-12T09:19:13.740Z,95174.69
2023-02-12T09:21:40.434Z,95183.97
2023-02-12T09:24:07.844Z,95183.41
2023-02-12T09:26:34.512Z,95181.88
2023-02-12T09:29:04.389Z,95182.13
2023-02-12T09:31:33.078Z,95183.03
2023-02-12T09:34:05.021Z,95174.06
2023-02-12T09:36:32.941Z,95174.13
2023-02-12T09:39:00.482Z,95175.91
2023-02-12T09:41:42.716Z,95175.59
2023-02-12T09:44:38.353Z,95184.69
2023-02-12T09:47:27.220Z,95183.88
2023-02-12T09:50:00.153Z,95177.22
2023-02-12T09:52:29.018Z,95189.41
2023-02-12T09:54:56.900Z,95189.19
2023-02-12T09:57:31.567Z,95189.28
2023-02-12T10:00:03.949Z,95199.41
2023-02-12T10:02:30.759Z,95200.59
2023-02-12T10:05:01.843Z,95193.84
2023-02-12T10:07:44.264Z,95195.13
2023-02-12T10:10:38.470Z,95205.34
2023-02-12T10:13:06.542Z,95196.34
2023-02-12T10:15:39.137Z,95200.44
2023-02-12T10:18:56.511Z,95207.50
2023-02-12T10:21:23.026Z,95210.69
2023-02-12T10:23:49.590Z,95201.19
2023-02-12T10:26:25.896Z,95191.75
2023-02-12T10:28:53.756Z,95180.88
2023-02-12T10:31:32.153Z,95182.63
2023-02-12T10:33:59.056Z,95181.00
2023-02-12T10:36:41.761Z,95190.34
2023-02-12T10:39:12.933Z,95187.97
2023-02-12T10:41:55.071Z,95195.06
2023-02-12T10:44:21.820Z,95192.13
2023-02-12T10:46:48.534Z,95187.28
2023-02-12T10:49:17.899Z,95200.09
2023-02-12T10:51:56.472Z,95194.00
2023-02-12T10:54:49.579Z,95197.34
2023-02-12T10:57:26.709Z,95186.19
2023-02-12T10:59:57.447Z,95193.88
2023-02-12T11:02:33.433Z,95188.75
2023-02-12T11:05:15.770Z,95193.03
2023-02-12T11:07:51.028Z,95191.28
2023-02-12T11:10:41.806Z,95194.09
2023-02-12T11:13:25.559Z,95192.75
2023-02-12T11:15:52.574Z,95194.09
2023-02-12T11:18:26.250Z,95190.88
2023-02-12T11:20:55.042Z,95192.94
2023-02-12T11:23:38.259Z,95195.59
2023-02-12T11:26:19.728Z,95189.88
2023-02-12T11:29:17.198Z,95190.09
2023-02-12T11:32:01.050Z,95191.56
2023-02-12T11:34:29.822Z,95188.97
2023-02-12T11:36:57.582Z,95187.66
2023-02-12T11:39:28.019Z,95183.34
2023-02-12T11:42:20.093Z,95193.66
2023-02-12T11:44:57.361Z,95189.94
2023-02-12T11:47:30.722Z,95189.19
2023-02-12T11:50:00.467Z,95190.59
2023-02-12T11:52:31.348Z,95184.56
2023-02-12T11:55:02.675Z,95178.91
2023-02-12T11:57:48.444Z,95180.81
2023-02-12T12:00:25.810Z,95186.97
2023-02-12T12:03:42.146Z,95189.59
2023-02-12T12:06:19.923Z,95190.22
2023-02-12T12:09:13.165Z,95191.34
2023-02-12T12:11:59.179Z,95194.06
2023-02-12T12:15:03.644Z,95197.22
2023-02-12T12:18:15.105Z,95200.06
2023-02-12T12:20:47.705Z,95202.50
2023-02-12T12:23:21.837Z,95191.59
2023-02-12T12:25:52.858Z,95202.06
2023-02-12T12:28:45.552Z,95203.31
2023-02-12T12:31:40.370Z,95201.91
2023-02-12T12:34:13.620Z,95206.81
2023-02-12T12:36:59.643Z,95199.38
2023-02-12T12:39:34.999Z,95201.19
2023-02-12T12:42:31.443Z,95201.66
2023-02-12T12:44:57.964Z,95201.00
2023-02-12T12:47:44.548Z,95211.28
2023-02-12T12:50:32.190Z,95212.22
2023-02-12T12:53:31.878Z,95215.25
2023-02-12T12:56:11.030Z,95214.81
2023-02-12T12:59:06.521Z,95229.63
2023-02-12T13:01:42.275Z,95225.53
2023-02-12T13:04:34.804Z,95231.28
2023-02-12T13:07:10.313Z,95236.09
2023-02-12T13:10:06.929Z,95230.81
2023-02-12T13:12:37.732Z,95228.84
2023-02-12T13:15:10.218Z,95238.44
2023-02-12T13:17:41.464Z,95233.16
2023-02-12T13:20:34.625Z,95233.53
2023-02-12T13:23:04.191Z,95238.28
2023-02-12T13:25:59.986Z,95239.25
2023-02-12T13:28:40.809Z,95239.06
2023-02-12T13:31:32.477Z,95247.91
2023-02-12T13:34:04.447Z,95250.06
2023-02-12T13:36:32.501Z,95237.41
2023-02-12T13:39:15.255Z,95243.53
2023-02-12T13:41:52.368Z,95246.38
2023-02-12T13:44:32.953Z,95249.72
2023-02-12T13:47:08.354Z,95245.78
2023-02-12T13:49:49.852Z,95248.06
2023-02-12T13:52:43.607Z,95256.81
2023-02-12T13:55:35.049Z,95264.06
2023-02-12T13:58:32.710Z,95263.66
2023-02-12T14:01:04.775Z,95256.13
2023-02-12T14:03:32.533Z,95255.31
2023-02-12T14:13:27.929Z,95269.34
2023-02-12T14:15:59.258Z,95272.84
2023-02-12T14:18:31.636Z,95279.72
2023-02-12T14:21:13.430Z,95289.88
2023-02-12T14:23:45.932Z,95289.44
2023-02-12T14:26:14.670Z,95290.31
2023-02-12T14:28:45.427Z,95293.22
2023-02-12T14:31:18.809Z,95294.50
2023-02-12T14:33:50.818Z,95294.94
2023-02-12T14:36:32.593Z,95298.94
2023-02-12T14:39:22.047Z,95305.81
2023-02-12T14:41:51.897Z,95306.00
2023-02-12T14:44:18.473Z,95308.97
2023-02-12T14:46:51.818Z,95311.19
2023-02-12T14:49:28.716Z,95321.53
2023-02-12T14:52:13.492Z,95326.34
2023-02-12T14:54:51.457Z,95320.00
2023-02-12T14:57:28.450Z,95322.16
2023-02-12T14:59:59.067Z,95327.06
2023-02-12T15:02:27.920Z,95320.00
2023-02-12T15:05:06.836Z,95337.50
2023-02-12T15:07:41.191Z,95338.38
2023-02-12T15:10:15.482Z,95341.72
2023-02-12T15:13:09.616Z,95356.38
2023-02-12T15:15:45.598Z,95354.63
2023-02-12T15:18:15.898Z,95353.00
2023-02-12T15:20:55.209Z,95363.88
2023-02-12T15:23:33.977Z,95373.75
2023-02-12T15:26:01.200Z,95382.50
2023-02-12T15:28:35.086Z,95386.28
2023-02-12T15:31:04.866Z,95392.47
2023-02-12T15:33:34.448Z,95394.59
2023-02-12T15:36:03.182Z,95401.47
2023-02-12T15:38:36.962Z,95399.41
2023-02-12T15:41:05.001Z,95411.03
2023-02-12T15:43:36.801Z,95412.56
2023-02-12T15:46:06.373Z,95404.72
2023-02-12T15:48:35.483Z,95408.53
2023-02-12T15:51:30.163Z,95411.94
2023-02-12T15:53:59.748Z,95410.22
2023-02-12T15:56:27.920Z,95414.66
2023-02-12T15:58:57.650Z,95419.69
2023-02-12T16:01:35.518Z,95414.56
2023-02-12T16:04:08.147Z,95420.91
2023-02-12T16:06:36.840Z,95427.31
2023-02-12T16:09:05.760Z,95440.13
2023-02-12T16:11:33.654Z,95448.38
2023-02-12T16:14:07.803Z,95445.66
2023-02-12T16:16:46.134Z,95440.63
2023-02-12T16:19:30.367Z,95452.44
2023-02-12T16:22:11.918Z,95445.47
2023-02-12T16:24:47.217Z,95460.72
2023-02-12T16:27:34.679Z,95466.41
2023-02-12T16:30:05.406Z,95473.09
2023-02-12T16:32:41.250Z,95459.59
2023-02-12T16:35:10.522Z,95468.78
2023-02-12T16:37:37.075Z,95482.88
2023-02-12T16:40:12.964Z,95481.28
2023-02-12T16:42:55.465Z,95483.53
2023-02-12T16:45:28.159Z,95489.50
2023-02-12T16:48:24.474Z,95483.78
2023-02-12T16:50:56.870Z,95478.81
2023-02-12T16:53:43.770Z,95490.53
2023-02-12T16:56:15.855Z,95488.63
2023-02-12T16:58:43.057Z,95492.06
2023-02-12T17:01:09.879Z,95495.41
2023-02-12T17:03:37.620Z,95505.75
2023-02-12T17:06:04.456Z,95505.44
2023-02-12T17:08:31.111Z,95512.25
2023-02-12T17:10:57.794Z,95519.41
2023-02-12T17:13:24.366Z,95521.88
2023-02-12T17:15:55.559Z,95524.44
2023-02-12T17:18:25.006Z,95526.94
2023-02-12T17:20:56.414Z,95529.91
2023-02-12T17:23:24.162Z,95536.03
2023-02-12T17:25:50.782Z,95542.31
2023-02-12T17:28:17.508Z,95555.94
2023-02-12T17:30:44.550Z,95561.72
2023-02-12T17:33:11.560Z,95565.34
2023-02-12T17:35:39.392Z,95563.97
2023-02-12T17:38:07.469Z,95566.44
2023-02-12T17:40:38.198Z,95572.94
2023-02-12T17:43:06.617Z,95570.22
2023-02-12T17:45:33.681Z,95575.72
2023-02-12T17:48:00.426Z,95575.38
2023-02-12T17:50:27.474Z,95584.31
2023-02-12T17:52:54.126Z,95591.41
2023-02-12T17:55:20.869Z,95592.16
2023-02-12T17:57:56.407Z,95594.56
2023-02-12T18:00:24.041Z,95595.66
2023-02-12T18:02:52.072Z,95591.97
2023-02-12T18:05:18.787Z,95590.13
2023-02-12T18:07:45.350Z,95589.81
2023-02-12T18:10:12.526Z,95589.00
2023-02-12T18:12:39.902Z,95586.84
2023-02-12T18:15:08.427Z,95594.81
2023-02-12T18:17:35.960Z,95585.78
2023-02-12T18:20:03.319Z,95585.38
2023-02-12T18:22:30.095Z,95588.00
2023-02-12T18:24:57.696Z,95583.56
2023-02-12T18:27:24.414Z,95584.03
2023-02-12T18:29:51.042Z,95585.31
2023-02-12T18:32:17.703Z,95582.53
2023-02-12T18:34:44.930Z,95589.25
2023-02-12T18:37:13.456Z,95591.28
2023-02-12T18:39:40.134Z,95598.69
2023-02-12T18:42:07.423Z,95591.63
2023-02-12T18:44:35.515Z,95599.25
2023-02-12T18:47:02.221Z,95599.72
2023-02-12T18:49:28.836Z,95603.38
2023-02-12T18:51:55.485Z,95605.75
2023-02-12T18:54:22.698Z,95605.63
2023-02-12T18:56:52.400Z,95609.94
2023-02-12T18:59:20.059Z,95610.25
2023-02-12T19:01:48.634Z,95617.66
2023-02-12T19:04:16.241Z,95625.38
2023-02-12T19:06:47.384Z,95625.66
2023-02-12T19:09:16.793Z,95633.19
2023-02-12T19:11:46.527Z,95625.13
2023-02-12T19:14:14.628Z,95628.00
2023-02-12T19:16:42.180Z,95631.22
2023-02-12T19:19:09.046Z,95637.00
2023-02-12T19:21:35.796Z,95641.38
2023-02-12T19:24:04.827Z,95647.78
2023-02-12T19:26:33.570Z,95641.09
2023-02-12T19:29:01.751Z,95636.84
2023-02-12T19:31:34.733Z,95635.75
2023-02-12T19:34:17.985Z,95635.50
2023-02-12T19:36:44.744Z,95641.28
2023-02-12T19:39:15.075Z,95643.19
2023-02-12T19:41:41.841Z,95636.25
2023-02-12T19:44:19.065Z,95638.66
2023-02-12T19:46:46.890Z,95655.34
2023-02-12T19:49:17.403Z,95654.09
2023-02-12T19:51:44.555Z,95663.63
2023-02-12T19:54:12.989Z,95663.34
2023-02-12T19:56:39.874Z,95669.94
2023-02-12T19:59:06.895Z,95668.88
2023-02-12T20:01:34.259Z,95659.38
2023-02-12T20:04:01.620Z,95670.22
2023-02-12T20:06:31.972Z,95670.22
2023-02-12T20:08:58.767Z,95672.34
2023-02-12T20:11:28.889Z,95675.50
2023-02-12T20:13:56.327Z,95676.53
2023-02-12T20:16:26.220Z,95677.88
2023-02-12T20:18:54.981Z,95683.44
2023-02-12T20:21:25.452Z,95684.50
2023-02-12T20:23:52.328Z,95687.69
2023-02-12T20:26:22.670Z,95686.63
2023-02-12T20:28:50.125Z,95689.28
2023-02-12T20:31:22.922Z,95689.28
2023-02-12T20:34:03.509Z,95692.44
2023-02-12T20:36:34.884Z,95686.91
2023-02-12T20:39:01.833Z,95684.78
2023-02-12T20:41:28.927Z,95691.69
2023-02-12T20:43:56.226Z,95689.28
2023-02-12T20:46:24.988Z,95684.25
2023-02-12T20:48:52.504Z,95691.13
2023-02-12T20:51:22.289Z,95692.44
2023-02-12T20:53:50.060Z,95693.25
2023-02-12T20:56:19.779Z,95688.50
2023-02-12T20:58:47.385Z,95685.31
2023-02-12T21:01:21.185Z,95689.81
2023-02-12T21:03:49.541Z,95701.16
2023-02-12T21:06:16.173Z,95709.09
2023-02-12T21:08:43.173Z,95714.41
2023-02-12T21:11:16.754Z,95720.19
2023-02-12T21:13:58.778Z,95723.88
2023-02-12T21:16:30.827Z,95725.47
2023-02-12T21:18:57.814Z,95726.03
2023-02-12T21:21:32.676Z,95732.03
2023-02-12T21:24:00.373Z,95727.31
2023-02-12T21:26:30.294Z,95723.34
2023-02-12T21:28:59.220Z,95720.75
2023-02-12T21:31:28.984Z,95726.78
2023-02-12T21:33:57.691Z,95723.34
2023-02-12T21:36:45.375Z,95727.06
2023-02-12T21:39:24.405Z,95728.06
2023-02-12T21:41:53.755Z,95731.56
2023-02-12T21:44:21.636Z,95741.88
2023-02-12T21:46:48.264Z,95732.88
2023-02-12T21:49:23.217Z,95744.00
2023-02-12T21:51:50.512Z,95743.69
2023-02-12T21:54:17.212Z,95739.94
2023-02-12T21:56:45.892Z,95751.06
2023-02-12T21:59:12.936Z,95756.28
2023-02-12T22:01:43.752Z,95755.97
2023-02-12T22:04:10.799Z,95755.50
2023-02-12T22:06:41.852Z,95759.72
2023-02-12T22:09:10.665Z,95759.25
2023-02-12T22:11:38.440Z,95754.56
2023-02-12T22:14:07.202Z,95763.53
2023-02-12T22:16:34.991Z,95771.06
2023-02-12T22:19:02.650Z,95760.25
2023-02-12T22:21:32.155Z,95766.34
2023-02-12T22:24:05.543Z,95767.56
2023-02-12T22:26:32.964Z,95769.59
2023-02-12T22:29:04.590Z,95774.97
2023-02-12T22:31:33.614Z,95766.00
2023-02-12T22:34:04.820Z,95766.69
2023-02-12T22:36:33.595Z,95765.38
2023-02-12T22:39:01.140Z,95764.50
2023-02-12T22:41:28.636Z,95770.34
2023-02-12T22:43:58.373Z,95771.97
2023-02-12T22:46:25.279Z,95775.66
2023-02-12T22:48:51.915Z,95775.84
2023-02-12T22:51:20.817Z,95779.16
2023-02-12T22:53:47.845Z,95775.59
2023-02-12T22:56:15.365Z,95776.88
2023-02-12T22:58:42.372Z,95779.06
2023-02-12T23:01:11.840Z,95778.28
2023-02-12T23:03:39.053Z,95776.22
2023-02-12T23:06:08.834Z,95775.69
2023-02-12T23:08:35.648Z,95784.63
2023-02-12T23:11:02.937Z,95780.66
2023-02-12T23:13:30.368Z,95787.28
2023-02-12T23:15:58.096Z,95788.66
2023-02-12T23:18:25.918Z,95788.38
2023-02-12T23:20:53.130Z,95789.41
2023-02-12T23:23:21.304Z,95787.28
2023-02-12T23:25:48.949Z,95790.91
2023-02-12T23:28:16.136Z,95800.53
2023-02-12T23:30:43.091Z,95797.91
2023-02-12T23:33:10.067Z,95794.22
2023-02-12T23:35:36.681Z,95793.94
2023-02-12T23:38:04.462Z,95803.59
2023-02-12T23:40:34.163Z,95809.31
2023-02-12T23:43:01.920Z,95810.41
2023-02-12T23:45:28.956Z,95808.25
2023-02-12T23:47:55.911Z,95813.53
2023-02-12T23:50:23.169Z,95810.44
2023-02-12T23:52:50.083Z,95806.97
2023-02-12T23:55:18.828Z,95811.34
2023-02-12T23:57:45.981Z,95816.44
